Time;durP1;ratioP1;P1;durP2;ratioP2;P2;SDS_P1;SDS_P2;PMS_P1;PMS_P2;Temp;Humidity;BMP_temperature;BMP_pressure;BME280_temperature;BME280_humidity;BME280_pressure;Samples;Min_cycle;Max_cycle;Signal;HPM_P1;HPM_P2
2022/07/08 00:01:56;;;;;;;11.95;1.98;;;;;;;19.10;100.00;102881.78;5078112;28;20284;-49
2022/07/08 00:04:22;;;;;;;8.98;1.38;;;;;;;19.16;100.00;102882.84;5082009;28;20025;-48
2022/07/08 00:06:48;;;;;;;11.68;2.88;;;;;;;19.20;100.00;102890.34;5078516;28;20025;-50
2022/07/08 00:09:14;;;;;;;7.38;1.60;;;;;;;18.87;100.00;102887.47;5075947;28;20051;-51
2022/07/08 00:11:41;;;;;;;8.10;1.80;;;;;;;18.87;100.00;102887.47;5076702;28;20029;-52
2022/07/08 00:14:08;;;;;;;16.70;2.10;;;;;;;18.77;100.00;102888.69;5076241;28;20277;-53
2022/07/08 00:16:34;;;;;;;6.33;1.87;;;;;;;18.87;100.00;102874.78;5082533;28;20289;-53
2022/07/08 00:19:00;;;;;;;6.45;1.83;;;;;;;18.89;100.00;102882.69;5079945;28;20285;-52
2022/07/08 00:21:26;;;;;;;8.77;1.73;;;;;;;18.98;100.00;102888.78;5077635;28;20040;-52
2022/07/08 00:23:52;;;;;;;7.32;1.63;;;;;;;19.06;100.00;102888.66;5075624;28;20282;-52
2022/07/08 00:26:18;;;;;;;12.55;1.83;;;;;;;19.20;100.00;102894.97;5077032;28;20036;-53
2022/07/08 00:28:44;;;;;;;9.82;1.60;;;;;;;19.35;100.00;102887.47;5079899;28;20033;-51
2022/07/08 00:31:09;;;;;;;11.85;2.10;;;;;;;19.35;100.00;102887.47;5079313;28;20040;-49
2022/07/08 00:33:35;;;;;;;30.83;2.80;;;;;;;19.27;100.00;102887.66;5081338;28;20032;-50
2022/07/08 00:36:01;;;;;;;8.77;1.55;;;;;;;19.20;100.00;102889.53;5080577;28;20097;-52
2022/07/08 00:38:26;;;;;;;8.38;1.95;;;;;;;19.20;100.00;102893.06;5078448;28;20044;-52
2022/07/08 00:40:52;;;;;;;10.93;1.80;;;;;;;19.19;100.00;102893.28;5081765;28;20067;-53
2022/07/08 00:43:37;;;;;;;8.73;1.95;;;;;;;19.31;100.00;102880.78;5079730;28;20045;-54
2022/07/08 00:46:04;;;;;;;9.93;1.57;;;;;;;19.20;100.00;102895.78;5075026;28;20833;-51
2022/07/08 00:48:29;;;;;;;12.90;2.00;;;;;;;19.12;100.00;102893.25;5077343;28;20257;-52
2022/07/08 00:50:58;;;;;;;6.30;1.83;;;;;;;19.04;100.00;102888.03;5078523;28;20270;-52
2022/07/08 00:53:24;;;;;;;5.70;1.73;;;;;;;19.03;100.00;102889.03;5077992;28;20055;-52
2022/07/08 00:55:50;;;;;;;7.75;2.03;;;;;;;18.96;100.00;102883.56;5077962;28;20329;-52
2022/07/08 00:58:15;;;;;;;9.70;2.20;;;;;;;19.04;100.00;102888.03;5079628;28;20048;-57
2022/07/08 01:00:42;;;;;;;6.78;1.52;;;;;;;18.95;100.00;102890.03;5074271;28;20100;-55
2022/07/08 01:03:07;;;;;;;8.85;2.28;;;;;;;19.17;100.00;102895.38;5080300;28;20076;-50
2022/07/08 01:05:33;;;;;;;16.65;2.20;;;;;;;19.04;100.00;102891.56;5075901;28;20033;-53
2022/07/08 01:07:59;;;;;;;9.85;2.00;;;;;;;19.20;100.00;102901.19;5074966;28;20053;-51
2022/07/08 01:10:24;;;;;;;7.33;1.57;;;;;;;19.34;100.00;102906.69;5073753;28;20029;-54
2022/07/08 01:12:50;;;;;;;7.53;1.45;;;;;;;19.31;100.00;102902.50;5076903;28;20273;-53
2022/07/08 01:15:16;;;;;;;;;;;;;;;19.17;100.00;102908.94;5075674;28;20029;-51
2022/07/08 01:17:45;;;;;;;11.17;1.80;;;;;;;19.19;100.00;102906.84;5081265;28;19912;-51
2022/07/08 01:20:12;;;;;;;7.47;1.90;;;;;;;18.91;100.00;102905.00;5081086;28;20029;-52
2022/07/08 01:22:38;;;;;;;9.90;1.50;;;;;;;19.14;100.00;102901.16;5074558;28;20296;-53
2022/07/08 01:25:05;;;;;;;7.40;1.33;;;;;;;19.23;100.00;102907.25;5074443;28;20337;-50
2022/07/08 01:27:31;;;;;;;8.57;1.67;;;;;;;19.33;100.00;102900.41;5075828;28;20096;-50
2022/07/08 01:29:57;;;;;;;5.75;1.80;;;;;;;19.25;100.00;102907.88;5074465;28;20305;-53
2022/07/08 01:32:22;;;;;;;8.38;1.42;;;;;;;19.31;100.00;102907.91;5082890;28;20025;-51
2022/07/08 01:34:47;;;;;;;8.57;1.40;;;;;;;19.06;100.00;102891.34;5077586;28;20108;-55
2022/07/08 01:37:13;;;;;;;10.90;2.37;;;;;;;19.00;100.00;102892.16;5074207;28;20044;-52
2022/07/08 01:39:39;;;;;;;11.20;1.95;;;;;;;19.01;100.00;102894.66;5082812;28;20037;-50
2022/07/08 01:42:05;;;;;;;8.60;2.23;;;;;;;19.14;100.00;102887.59;5079488;28;20071;-53
2022/07/08 01:44:31;;;;;;;19.38;1.80;;;;;;;19.02;100.00;102881.94;5083536;28;20067;-52
2022/07/08 01:46:57;;;;;;;12.95;2.03;;;;;;;19.15;100.00;102886.59;5076471;28;20100;-53
2022/07/08 01:49:22;;;;;;;8.73;1.67;;;;;;;19.18;100.00;102891.63;5078486;28;20067;-53
2022/07/08 01:51:48;;;;;;;9.10;1.83;;;;;;;19.17;100.00;102890.75;5074138;28;20029;-53
2022/07/08 01:54:13;;;;;;;12.63;1.77;;;;;;;19.13;100.00;102894.06;5078518;28;20044;-51
2022/07/08 01:56:41;;;;;;;10.17;2.00;;;;;;;19.16;100.00;102886.38;5074581;28;20292;-54
2022/07/08 01:59:07;;;;;;;8.17;1.80;;;;;;;19.06;100.00;102888.66;5075965;28;20056;-53
2022/07/08 02:01:32;;;;;;;7.85;2.05;;;;;;;19.11;100.00;102901.56;5081271;28;20297;-51
2022/07/08 02:04:01;;;;;;;9.70;1.77;;;;;;;18.69;100.00;102898.84;5077072;28;20040;-54
2022/07/08 02:06:28;;;;;;;10.77;2.20;;;;;;;18.67;100.00;102898.22;5078213;28;20096;-52
2022/07/08 02:08:54;;;;;;;11.23;2.37;;;;;;;18.93;100.00;102892.09;5077840;28;20260;-50
2022/07/08 02:14:05;;;;;;;9.87;3.53;;;;;;;18.65;100.00;102893.00;5077742;28;20074;-52
2022/07/08 02:16:30;;;;;;;6.65;2.42;;;;;;;18.48;100.00;102892.47;5073441;28;20266;-53
2022/07/08 02:18:56;;;;;;;14.33;2.10;;;;;;;18.47;100.00;102897.06;5073581;28;20032;-52
2022/07/08 02:21:21;;;;;;;7.70;2.50;;;;;;;18.75;100.00;102890.75;5075508;28;20029;-48
2022/07/08 02:23:46;;;;;;;6.70;2.13;;;;;;;18.74;100.00;102894.50;5078215;28;20033;-51
2022/07/08 02:26:12;;;;;;;14.83;2.83;;;;;;;18.97;100.00;102887.09;5075654;28;20029;-51
2022/07/08 02:28:38;;;;;;;18.98;4.20;;;;;;;18.36;100.00;102888.66;5075868;28;20025;-53
2022/07/08 02:31:03;;;;;;;6.93;2.10;;;;;;;18.71;100.00;102894.06;5076094;28;20059;-52
2022/07/08 02:33:29;;;;;;;17.02;2.78;;;;;;;18.51;100.00;102894.78;5078660;28;20025;-50
2022/07/08 02:35:55;;;;;;;6.30;1.85;;;;;;;18.65;100.00;102893.00;5075006;28;20044;-50
2022/07/08 02:38:21;;;;;;;7.18;1.92;;;;;;;18.23;100.00;102889.41;5076908;28;20111;-55
2022/07/08 02:40:47;;;;;;;10.70;3.15;;;;;;;17.99;100.00;102886.88;5075119;28;20064;-52
2022/07/08 02:43:13;;;;;;;17.23;2.45;;;;;;;18.34;100.00;102891.56;5075805;28;20037;-51
2022/07/08 02:45:40;;;;;;;11.57;3.00;;;;;;;18.28;100.00;102898.59;5070815;28;20079;-53
2022/07/08 02:48:06;;;;;;;11.75;2.58;;;;;;;17.94;100.00;102893.91;5074948;28;20732;-54
2022/07/08 02:50:31;;;;;;;24.92;3.20;;;;;;;18.02;100.00;102891.13;5075077;28;20036;-52
2022/07/08 02:52:56;;;;;;;17.25;2.55;;;;;;;17.96;100.00;102898.09;5076499;28;20056;-53
2022/07/08 02:55:22;;;;;;;11.90;2.28;;;;;;;17.54;100.00;102888.97;5073222;28;20033;-52
2022/07/08 02:57:47;;;;;;;17.17;2.55;;;;;;;17.68;100.00;102882.66;5073203;28;20035;-54
2022/07/08 03:00:13;;;;;;;12.02;3.30;;;;;;;17.68;100.00;102887.22;5074515;28;20037;-56
2022/07/08 03:02:38;;;;;;;9.48;2.47;;;;;;;17.76;100.00;102887.06;5073724;28;20064;-54
2022/07/08 03:05:05;;;;;;;11.65;3.10;;;;;;;17.49;100.00;102889.53;5076792;28;20029;-53
2022/07/08 03:07:30;;;;;;;13.00;2.80;;;;;;;17.73;100.00;102892.88;5077539;28;20064;-55
2022/07/08 03:09:56;;;;;;;10.17;3.27;;;;;;;17.59;100.00;102894.63;5075997;28;20033;-53
2022/07/08 03:12:21;;;;;;;7.10;3.00;;;;;;;17.56;100.00;102887.75;5072962;28;20033;-52
2022/07/08 03:14:47;;;;;;;15.18;2.72;;;;;;;17.26;100.00;102882.41;5074623;28;20060;-48
2022/07/08 03:17:12;;;;;;;13.07;2.53;;;;;;;17.41;100.00;102884.25;5081173;28;20037;-53
2022/07/08 03:19:38;;;;;;;9.00;2.33;;;;;;;17.42;100.00;102883.22;5079138;28;20024;-51
2022/07/08 03:22:04;;;;;;;12.45;3.75;;;;;;;17.32;100.00;102887.06;5072738;28;20033;-54
2022/07/08 03:24:30;;;;;;;12.52;2.35;;;;;;;17.33;100.00;102880.63;5072570;28;20105;-54
2022/07/08 03:26:55;;;;;;;11.30;2.80;;;;;;;17.41;100.00;102886.94;5072938;28;20032;-54
2022/07/08 03:29:21;;;;;;;13.33;2.90;;;;;;;17.16;100.00;102876.47;5085024;28;20044;-52
2022/07/08 03:31:47;;;;;;;13.98;3.00;;;;;;;17.40;100.00;102885.28;5087964;28;20047;-51
2022/07/08 03:34:12;;;;;;;13.15;3.03;;;;;;;17.02;100.00;102894.41;5084218;28;20037;-56
2022/07/08 03:36:37;;;;;;;10.83;2.47;;;;;;;17.20;100.00;102891.28;5076415;28;20040;-55
2022/07/08 03:39:03;;;;;;;12.10;2.63;;;;;;;17.14;100.00;102898.28;5080439;28;20029;-53
2022/07/08 03:41:29;;;;;;;12.53;2.60;;;;;;;17.04;100.00;102903.16;5078898;28;20068;-55
2022/07/08 03:43:54;;;;;;;6.30;2.88;;;;;;;17.22;100.00;102900.03;5082973;28;20317;-50
2022/07/08 03:46:20;;;;;;;11.57;2.30;;;;;;;17.10;100.00;102907.81;5080388;28;20040;-54
2022/07/08 03:48:47;;;;;;;12.48;2.83;;;;;;;17.21;100.00;102901.06;5081190;28;20048;-52
2022/07/08 03:51:13;;;;;;;8.15;3.03;;;;;;;17.10;100.00;102901.56;5076377;28;20029;-52
2022/07/08 03:53:40;;;;;;;10.93;2.90;;;;;;;17.29;100.00;102905.53;5081768;28;20036;-52
2022/07/08 03:56:07;;;;;;;9.70;2.20;;;;;;;17.22;100.00;102900.03;5083137;28;20285;-55
2022/07/08 03:58:34;;;;;;;8.82;2.70;;;;;;;17.19;100.00;102905.84;5080847;28;20269;-55
2022/07/08 04:01:00;;;;;;;8.13;2.07;;;;;;;17.43;100.00;102901.97;5078556;28;20039;-54
2022/07/08 04:03:26;;;;;;;12.95;2.78;;;;;;;17.44;100.00;102903.66;5083021;28;20269;-56
2022/07/08 04:05:51;;;;;;;14.38;3.47;;;;;;;17.02;100.00;102900.63;5077190;28;20078;-56
2022/07/08 04:08:16;;;;;;;7.93;2.40;;;;;;;16.85;100.00;102912.66;5079140;28;20045;-54
2022/07/08 04:10:42;;;;;;;13.95;2.08;;;;;;;16.98;100.00;102903.91;5081523;28;20069;-51
2022/07/08 04:13:08;;;;;;;13.70;3.30;;;;;;;16.88;100.00;102904.19;5084647;28;20057;-54
2022/07/08 04:15:33;;;;;;;10.97;2.83;;;;;;;17.22;100.00;102912.75;5080150;28;20032;-54
2022/07/08 04:17:59;;;;;;;8.40;2.10;;;;;;;17.31;100.00;102914.31;5076036;28;20096;-52
2022/07/08 04:20:24;;;;;;;8.82;2.40;;;;;;;17.33;100.00;102915.78;5078444;28;20033;-52
2022/07/08 04:22:50;;;;;;;19.23;3.08;;;;;;;17.30;100.00;102913.47;5073545;28;20028;-49
2022/07/08 04:25:15;;;;;;;14.38;3.17;;;;;;;17.10;100.00;102912.38;5084043;28;20033;-54
2022/07/08 04:27:41;;;;;;;18.50;2.75;;;;;;;17.27;100.00;102913.81;5080662;28;20028;-52
2022/07/08 04:30:08;;;;;;;11.97;3.17;;;;;;;17.32;100.00;102910.56;5077461;28;20104;-56
2022/07/08 04:32:34;;;;;;;15.20;2.97;;;;;;;17.34;100.00;102919.31;5075784;28;20266;-53
2022/07/08 04:34:59;;;;;;;12.73;2.47;;;;;;;17.25;100.00;102921.28;5077874;28;20409;-52
2022/07/08 04:37:26;;;;;;;13.60;2.60;;;;;;;17.16;100.00;102922.44;5083486;28;20044;-52
2022/07/08 04:39:53;;;;;;;13.93;2.80;;;;;;;17.44;100.00;102924.44;5080830;28;20092;-56
2022/07/08 04:42:18;;;;;;;;;;;;;;;17.34;100.00;102925.59;5075701;28;20274;-55
2022/07/08 04:44:44;;;;;;;10.13;2.13;;;;;;;17.47;100.00;102932.16;5074737;28;19948;-50
2022/07/08 04:47:09;;;;;;;9.03;2.37;;;;;;;17.65;100.00;102937.16;5081689;28;20048;-54
2022/07/08 04:49:35;;;;;;;8.60;2.67;;;;;;;17.64;100.00;102935.47;5078118;28;20044;-56
2022/07/08 04:52:00;;;;;;;11.73;3.10;;;;;;;17.52;100.00;102942.41;5082729;28;20053;-52
2022/07/08 04:54:25;;;;;;;7.63;2.07;;;;;;;17.59;100.00;102944.16;5078968;28;20025;-54
2022/07/08 04:56:51;;;;;;;19.33;3.72;;;;;;;17.49;100.00;102951.72;5083290;28;20101;-54
2022/07/08 04:59:17;;;;;;;16.73;3.38;;;;;;;17.57;100.00;102959.75;5075457;28;20040;-54
2022/07/08 05:01:43;;;;;;;8.32;2.60;;;;;;;17.63;100.00;102958.13;5087157;28;20032;-55
2022/07/08 05:04:08;;;;;;;16.75;4.50;;;;;;;17.65;100.00;102961.50;5077059;28;20060;-56
2022/07/08 05:06:34;;;;;;;16.13;4.73;;;;;;;17.79;100.00;102965.19;5081207;28;20064;-53
2022/07/08 05:08:59;;;;;;;5.73;1.90;;;;;;;17.68;100.00;102966.53;5077405;28;20032;-53
2022/07/08 05:11:25;;;;;;;7.93;2.03;;;;;;;17.81;100.00;102968.53;5081804;28;20061;-51
2022/07/08 05:13:50;;;;;;;13.60;2.28;;;;;;;18.02;100.00;102969.63;5083397;28;20042;-54
2022/07/08 05:16:16;;;;;;;22.10;3.10;;;;;;;17.82;100.00;102970.22;5077978;28;20036;-54
2022/07/08 05:18:41;;;;;;;13.57;2.40;;;;;;;18.03;100.00;102976.72;5078378;28;20092;-55
2022/07/08 05:21:07;;;;;;;13.73;2.80;;;;;;;18.06;100.00;102973.59;5074883;28;20037;-53
2022/07/08 05:23:33;;;;;;;14.07;2.45;;;;;;;18.00;100.00;102971.66;5076155;28;20040;-51
2022/07/08 05:25:59;;;;;;;13.50;2.10;;;;;;;18.17;100.00;102973.06;5080022;28;20097;-55
2022/07/08 05:28:24;;;;;;;9.45;2.25;;;;;;;18.23;100.00;102973.34;5072783;28;20032;-57
2022/07/08 05:30:50;;;;;;;9.82;2.47;;;;;;;17.97;100.00;102978.28;5077367;28;20062;-54
2022/07/08 05:33:15;;;;;;;15.77;2.80;;;;;;;18.46;100.00;102979.38;5075611;28;20029;-53
2022/07/08 05:35:41;;;;;;;17.27;3.77;;;;;;;18.51;100.00;102975.25;5075404;28;20032;-52
2022/07/08 05:38:06;;;;;;;8.73;2.25;;;;;;;18.60;100.00;102982.19;5073420;28;20313;-55
2022/07/08 05:40:32;;;;;;;11.93;2.67;;;;;;;18.39;100.00;102991.19;5073856;28;20105;-52
2022/07/08 05:42:58;;;;;;;12.98;2.80;;;;;;;18.80;100.00;102981.47;5072358;28;20033;-54
2022/07/08 05:45:23;;;;;;;12.57;2.97;;;;;;;18.46;100.00;102992.94;5073533;28;20037;-49
2022/07/08 05:47:48;;;;;;;9.35;2.10;;;;;;;18.56;100.00;102986.31;5069222;28;20029;-55
2022/07/08 05:50:14;;;;;;;32.97;3.43;;;;;;;18.97;100.00;102993.69;5069030;28;20062;-54
2022/07/08 05:52:39;;;;;;;10.63;3.47;;;;;;;18.69;100.00;102991.84;5067741;28;20025;-54
2022/07/08 05:55:05;;;;;;;9.35;2.40;;;;;;;18.90;100.00;102995.50;5073244;28;20055;-56
2022/07/08 05:57:31;;;;;;;15.23;2.95;;;;;;;19.15;100.00;102997.78;5075801;28;20039;-53
2022/07/08 05:59:57;;;;;;;11.23;2.50;;;;;;;19.23;100.00;103005.75;5073594;28;20160;-53
2022/07/08 06:02:22;;;;;;;10.90;2.65;;;;;;;18.93;100.00;103003.25;5073828;28;20072;-54
2022/07/08 06:04:48;;;;;;;11.60;2.65;;;;;;;19.15;100.00;102998.59;5079384;28;20048;-54
2022/07/08 06:07:13;;;;;;;12.00;2.42;;;;;;;19.35;100.00;103001.41;5077080;28;20037;-53
2022/07/08 06:09:39;;;;;;;5.50;2.30;;;;;;;19.23;100.00;103007.59;5073682;28;20040;-51
2022/07/08 06:12:05;;;;;;;13.93;2.63;;;;;;;19.02;100.00;103002.09;5078083;28;20029;-53
2022/07/08 06:14:30;;;;;;;23.63;3.67;;;;;;;18.95;100.00;103000.34;5073843;28;20047;-55
2022/07/08 06:16:56;;;;;;;15.23;2.50;;;;;;;19.39;100.00;103006.47;5074016;28;20056;-52
2022/07/08 06:19:22;;;;;;;7.80;1.75;;;;;;;19.63;100.00;103008.63;5073281;28;20071;-53
2022/07/08 06:21:48;;;;;;;20.80;4.30;;;;;;;19.64;100.00;103006.75;5073553;28;20065;-54
2022/07/08 06:24:14;;;;;;;7.00;1.70;;;;;;;19.86;100.00;103012.88;5073807;28;20310;-54
2022/07/08 06:26:43;;;;;;;8.07;2.08;;;;;;;19.65;100.00;103002.16;5084194;28;20033;-54
2022/07/08 06:29:09;;;;;;;15.03;1.93;;;;;;;19.75;100.00;103005.31;5073225;28;20041;-55
2022/07/08 06:31:38;;;;;;;12.13;2.55;;;;;;;20.19;100.00;103005.88;5073700;28;20276;-54
2022/07/08 06:34:03;;;;;;;7.80;1.80;;;;;;;20.68;100.00;103011.91;5073313;28;20040;-50
2022/07/08 06:36:29;;;;;;;13.25;1.95;;;;;;;20.80;100.00;103017.56;5077274;28;20096;-54
2022/07/08 06:38:55;;;;;;;16.92;3.40;;;;;;;20.80;100.00;103005.88;5079610;28;20033;-56
2022/07/08 06:41:20;;;;;;;20.88;1.95;;;;;;;20.16;100.00;103007.09;5079143;28;20044;-54
2022/07/08 06:43:46;;;;;;;13.20;3.05;;;;;;;20.86;100.00;103016.72;5072378;28;20037;-55
2022/07/08 06:46:12;;;;;;;;;;;;;;;21.05;100.00;103014.16;5074554;28;20028;-56
2022/07/08 06:48:38;;;;;;;11.87;1.77;;;;;;;21.16;100.00;103018.97;5075895;28;19920;-53
2022/07/08 06:51:03;;;;;;;13.48;2.20;;;;;;;21.12;100.00;103019.59;5077207;28;20039;-54
2022/07/08 06:54:34;;;;;;;9.23;1.48;;;;;;;21.26;100.00;103025.81;5085360;28;20040;-54
2022/07/08 06:56:14;;;;;;;8.90;2.00;;;;;;;21.20;100.00;103019.34;5078369;28;20037;-50
2022/07/08 06:58:40;;;;;;;12.70;2.17;;;;;;;21.06;100.00;103013.97;5073409;28;20029;-52
2022/07/08 07:01:05;;;;;;;16.23;1.83;;;;;;;21.17;100.00;103017.06;5074931;28;20029;-52
2022/07/08 07:03:31;;;;;;;7.57;2.10;;;;;;;21.67;100.00;103016.47;5077886;28;20067;-50
2022/07/08 07:05:56;;;;;;;14.23;1.88;;;;;;;21.35;100.00;103024.56;5081930;28;20052;-52
2022/07/08 07:08:22;;;;;;;9.43;2.08;;;;;;;21.44;100.00;103022.41;5077015;28;20041;-50
2022/07/08 07:10:47;;;;;;;9.30;2.03;;;;;;;21.73;100.00;103020.22;5072956;28;20058;-54
2022/07/08 07:13:13;;;;;;;12.70;1.65;;;;;;;21.96;100.00;103016.09;5072827;28;20385;-53
2022/07/08 07:15:38;;;;;;;11.93;2.08;;;;;;;21.51;100.00;103022.38;5078041;28;20099;-53
2022/07/08 07:18:04;;;;;;;11.27;1.67;;;;;;;21.68;100.00;103022.72;5078864;28;20028;-51
2022/07/08 07:20:29;;;;;;;11.25;2.53;;;;;;;21.75;100.00;103018.94;5081926;28;20029;-53
2022/07/08 07:22:55;;;;;;;20.52;2.90;;;;;;;21.33;100.00;103019.31;5072846;28;20034;-53
2022/07/08 07:25:20;;;;;;;13.27;3.45;;;;;;;21.23;100.00;103023.53;5073005;28;20064;-51
2022/07/08 07:27:46;;;;;;;12.73;2.93;;;;;;;21.17;100.00;103022.50;5075146;28;20072;-51
2022/07/08 07:30:12;;;;;;;12.45;1.88;;;;;;;20.89;100.00;103020.91;5079914;28;20278;-53
2022/07/08 07:32:37;;;;;;;7.13;1.98;;;;;;;21.26;100.00;103012.22;5076584;28;20025;-55
2022/07/08 07:35:03;;;;;;;9.18;2.45;;;;;;;21.77;100.00;103014.09;5070304;28;20037;-53
2022/07/08 07:37:34;;;;;;;8.30;1.60;;;;;;;21.68;100.00;103017.28;5072844;28;20040;-54
2022/07/08 07:40:02;;;;;;;6.27;2.00;;;;;;;21.85;100.00;103007.56;5072755;28;20088;-53
2022/07/08 07:42:27;;;;;;;13.93;2.13;;;;;;;22.42;100.00;103012.19;5074280;28;20045;-53
2022/07/08 07:44:53;;;;;;;13.95;2.55;;;;;;;22.01;100.00;103006.19;5078084;28;20113;-54
2022/07/08 07:47:18;;;;;;;12.13;2.22;;;;;;;21.69;100.00;103003.47;5076194;28;20045;-51
2022/07/08 07:49:44;;;;;;;8.50;1.63;;;;;;;21.92;100.00;103019.28;5071419;28;20052;-55
2022/07/08 07:52:10;;;;;;;15.95;2.42;;;;;;;22.10;100.00;103030.47;5081077;28;20076;-59
2022/07/08 07:54:35;;;;;;;10.90;2.75;;;;;;;21.14;100.00;103021.06;5070127;28;20036;-54
2022/07/08 07:57:00;;;;;;;6.53;2.03;;;;;;;21.72;100.00;103024.00;5076480;28;20036;-53
2022/07/08 07:59:26;;;;;;;11.13;2.15;;;;;;;22.27;100.00;103025.31;5080463;28;20110;-55
2022/07/08 08:01:52;;;;;;;6.95;1.75;;;;;;;22.30;100.00;103014.81;5072231;28;20092;-53
2022/07/08 08:04:17;;;;;;;13.15;2.45;;;;;;;22.18;100.00;103022.00;5076686;28;20029;-55
2022/07/08 08:06:42;;;;;;;8.00;1.58;;;;;;;22.40;100.00;103021.63;5073292;28;20037;-54
2022/07/08 08:09:08;;;;;;;8.55;1.73;;;;;;;22.48;100.00;103024.94;5079210;28;20071;-56
2022/07/08 08:11:34;;;;;;;10.57;2.47;;;;;;;22.32;100.00;103009.13;5073906;28;20104;-55
2022/07/08 08:13:59;;;;;;;10.37;2.50;;;;;;;22.03;100.00;103016.88;5074204;28;20132;-54
2022/07/08 08:16:24;;;;;;;8.23;1.93;;;;;;;21.96;100.00;103016.09;5085899;28;20285;-56
2022/07/08 08:18:50;;;;;;;10.40;2.22;;;;;;;22.25;100.00;103019.25;5078267;28;20270;-53
2022/07/08 08:21:16;;;;;;;8.07;1.88;;;;;;;22.18;100.00;103019.28;5077970;28;20045;-54
2022/07/08 08:23:41;;;;;;;13.38;2.25;;;;;;;22.62;100.00;103014.75;5081998;28;20036;-54
2022/07/08 08:26:07;;;;;;;8.98;1.90;;;;;;;22.67;100.00;103013.25;5079696;28;20045;-53
2022/07/08 08:28:33;;;;;;;11.65;1.90;;;;;;;22.90;100.00;103015.34;5078611;28;20044;-53
2022/07/08 08:30:58;;;;;;;12.25;2.00;;;;;;;22.86;100.00;103014.94;5076012;28;20071;-55
2022/07/08 08:33:23;;;;;;;8.40;1.77;;;;;;;23.39;100.00;103025.50;5080109;28;20028;-52
2022/07/08 08:35:49;;;;;;;15.90;2.17;;;;;;;23.78;100.00;103028.78;5082043;28;20055;-55
2022/07/08 08:38:15;;;;;;;10.60;1.95;;;;;;;23.30;100.00;103025.84;5079718;28;20052;-55
2022/07/08 08:40:42;;;;;;;;;;;;;;;23.79;100.00;103035.91;5084032;28;20086;-52
2022/07/08 08:43:07;;;;;;;11.30;2.03;;;;;;;23.80;100.00;103031.25;5078190;28;20026;-53
2022/07/08 08:45:34;;;;;;;12.82;2.03;;;;;;;23.96;100.00;103029.75;5079587;28;20100;-54
2022/07/08 08:48:06;;;;;;;8.13;1.90;;;;;;;24.57;100.00;103026.94;5077344;28;20036;-52
2022/07/08 08:53:22;;;;;;;6.10;1.73;;;;;;;24.67;100.00;103032.63;5078502;28;20029;-55
2022/07/08 08:55:50;;;;;;;7.13;2.37;;;;;;;25.05;100.00;103030.50;5079450;28;20037;-50
2022/07/08 08:58:16;;;;;;;10.90;2.07;;;;;;;24.61;100.00;103033.59;5074982;28;20035;-54
2022/07/08 09:00:42;;;;;;;16.63;3.10;;;;;;;24.80;100.00;103036.22;5077790;28;20051;-52
2022/07/08 09:03:07;;;;;;;15.60;2.63;;;;;;;24.33;100.00;103026.91;5080826;28;20044;-52
2022/07/08 09:05:33;;;;;;;8.90;1.70;;;;;;;24.45;100.00;103019.56;5076800;28;20036;-56
2022/07/08 09:07:58;;;;;;;14.00;2.17;;;;;;;24.88;100.00;103023.03;5077714;28;20052;-53
2022/07/08 09:10:24;;;;;;;6.05;1.48;;;;;;;25.40;100.00;103031.47;5079597;28;20056;-50
2022/07/08 09:13:12;;;;;;;6.90;1.52;;;;;;;25.95;100.00;103027.34;5079388;28;20075;-56
2022/07/08 09:15:45;;;;;;;4.23;1.30;;;;;;;26.23;100.00;103020.16;5078509;28;20124;-54
2022/07/08 09:18:13;;;;;;;4.93;1.50;;;;;;;26.23;100.00;103020.16;5077178;28;20041;-54
2022/07/08 09:20:44;;;;;;;11.63;1.87;;;;;;;26.40;100.00;103022.88;5072045;28;20033;-54
2022/07/08 09:23:15;;;;;;;9.00;2.20;;;;;;;26.57;100.00;103028.34;5074511;28;20037;-52
2022/07/08 09:25:41;;;;;;;7.50;1.70;;;;;;;26.52;100.00;103030.16;5069571;28;20091;-55
2022/07/08 09:28:07;;;;;;;6.93;1.70;;;;;;;26.80;100.00;103026.47;5072700;28;20079;-54
2022/07/08 09:30:33;;;;;;;10.80;3.13;;;;;;;27.15;100.00;103032.72;5077124;28;20028;-54
2022/07/08 09:33:00;;;;;;;;;;;;;;;26.87;100.00;103029.06;5074333;28;20029;-52
2022/07/08 09:35:35;;;;;;;8.43;2.47;;;;;;;27.17;100.00;103027.78;5074430;28;19913;-55
2022/07/08 09:38:01;;;;;;;11.53;2.70;;;;;;;26.80;100.00;103023.72;5078403;28;20033;-54
2022/07/08 09:40:27;;;;;;;15.67;7.27;;;;;;;27.00;100.00;103028.72;5072028;28;20032;-55
2022/07/08 09:42:52;;;;;;;;;;;;;;;26.73;100.00;103021.16;5077347;28;20045;-55
2022/07/08 09:45:18;;;;;;;40.77;15.27;;;;;;;26.62;100.00;103030.34;5076328;28;19980;-53
2022/07/08 09:47:43;;;;;;;;;;;;;;;26.84;100.00;103024.88;5080931;28;20040;-56
2022/07/08 09:50:09;;;;;;;37.85;15.10;;;;;;;26.86;100.00;103032.91;5079644;28;19943;-54
2022/07/08 09:52:34;;;;;;;38.03;15.32;;;;;;;27.26;100.00;103034.50;5080114;28;20064;-57
2022/07/08 09:55:03;;;;;;;109.30;53.50;;;;;;;27.50;100.00;103028.75;5081957;28;20120;-53
2022/07/08 09:57:30;;;;;;;32.92;12.82;;;;;;;27.36;100.00;103035.72;5077953;28;20029;-53
2022/07/08 09:59:56;;;;;;;64.38;32.63;;;;;;;28.03;99.29;103042.75;5080638;28;20084;-52
2022/07/08 10:02:23;;;;;;;16.85;4.80;;;;;;;28.40;95.85;103041.16;5081581;28;20029;-56
2022/07/08 10:04:50;;;;;;;119.90;63.60;;;;;;;29.20;91.39;103042.16;5075056;28;20040;-52
2022/07/08 10:07:16;;;;;;;20.90;11.20;;;;;;;28.75;93.23;103036.97;5075382;28;20059;-53
2022/07/08 10:09:42;;;;;;;33.17;15.63;;;;;;;30.03;85.18;103047.91;5075423;28;20032;-56
2022/07/08 10:12:12;;;;;;;28.95;14.02;;;;;;;30.00;83.15;103051.19;5081107;28;20104;-53
2022/07/08 10:14:39;;;;;;;200.07;116.28;;;;;;;30.32;81.07;103048.13;5079234;28;20043;-53
2022/07/08 10:17:09;;;;;;;79.40;40.55;;;;;;;30.26;81.48;103048.44;5078542;28;20032;-54
2022/07/08 10:19:40;;;;;;;93.78;52.42;;;;;;;31.35;74.38;103050.91;5072925;28;20037;-55
2022/07/08 10:22:08;;;;;;;40.78;21.80;;;;;;;31.57;71.85;103048.56;5078712;28;20033;-56
2022/07/08 10:24:39;;;;;;;73.85;43.20;;;;;;;31.22;73.99;103046.81;5068962;28;20056;-55
2022/07/08 10:27:05;;;;;;;55.92;32.35;;;;;;;32.23;69.61;103042.81;5072438;28;20063;-51
2022/07/08 10:29:33;;;;;;;39.88;21.30;;;;;;;32.22;68.43;103055.00;5070790;28;20028;-54
2022/07/08 10:31:59;;;;;;;24.30;12.18;;;;;;;32.32;65.68;103059.63;5072901;28;20067;-55
2022/07/08 10:34:32;;;;;;;57.00;35.08;;;;;;;32.70;64.70;103059.78;5068637;28;20032;-52
2022/07/08 10:36:58;;;;;;;21.88;9.85;;;;;;;32.67;64.83;103054.03;5068046;28;20052;-55
2022/07/08 10:39:28;;;;;;;34.33;17.77;;;;;;;33.20;62.78;103044.78;5073558;28;20028;-54
2022/07/08 10:42:04;;;;;;;12.23;4.35;;;;;;;32.55;64.37;103054.44;5070042;28;20045;-55
2022/07/08 10:44:45;;;;;;;8.00;3.47;;;;;;;32.11;66.42;103054.28;5072975;28;20028;-55
2022/07/08 10:47:28;;;;;;;8.60;2.83;;;;;;;32.66;64.14;103047.66;5077040;28;20055;-55
2022/07/08 10:50:06;;;;;;;7.00;2.30;;;;;;;32.89;63.14;103056.28;5075654;28;20062;-50
2022/07/08 10:52:38;;;;;;;11.57;4.50;;;;;;;33.41;62.57;103047.28;5073513;28;20100;-54
2022/07/08 10:55:22;;;;;;;16.35;7.47;;;;;;;33.77;84.90;103035.69;5077864;28;20029;-46
2022/07/08 10:57:55;;;;;;;12.98;6.00;;;;;;;33.30;96.05;103029.97;5076961;28;20040;-50
2022/07/08 11:00:22;;;;;;;8.40;2.17;;;;;;;32.37;88.95;103043.00;5073601;28;20033;-51
2022/07/08 11:02:48;;;;;;;9.85;2.53;;;;;;;32.92;88.42;103039.06;5082491;28;20045;-52
2022/07/08 11:05:40;;;;;;;7.07;2.58;;;;;;;32.11;83.74;103032.13;5075717;28;20067;-54
2022/07/08 11:08:26;;;;;;;9.65;2.60;;;;;;;32.72;78.13;103032.63;5071155;28;20067;-56
2022/07/08 11:10:53;;;;;;;7.80;1.75;;;;;;;32.77;74.02;103022.63;5074856;28;20041;-52
2022/07/08 11:13:20;;;;;;;12.05;2.42;;;;;;;33.23;69.69;103024.81;5070249;28;20029;-57
2022/07/08 11:15:45;;;;;;;7.10;3.03;;;;;;;33.50;64.49;103031.66;5067773;28;20040;-54
2022/07/08 11:18:19;;;;;;;20.73;9.23;;;;;;;32.57;68.29;103021.75;5066963;28;20029;-56